Time;durP1;ratioP1;P1;durP2;ratioP2;P2;SDS_P1;SDS_P2;PMS_P1;PMS_P2;Temp;Humidity;BMP_temperature;BMP_pressure;BME280_temperature;BME280_humidity;BME280_pressure;Samples;Min_cycle;Max_cycle;Signal;HPM_P1;HPM_P2
2022/08/03 00:01:31;;;;;;;0.65;0.52;;;;;;;21.42;43.12;93908.97;5076452;28;20032;-78
2022/08/03 00:03:57;;;;;;;0.80;0.70;;;;;;;21.50;43.01;93931.44;5073969;28;20021;-77
2022/08/03 00:06:22;;;;;;;1.38;0.60;;;;;;;21.33;42.91;93916.66;5074383;28;20996;-77
2022/08/03 00:08:48;;;;;;;0.47;0.47;;;;;;;21.36;43.22;93920.53;5074378;28;20039;-77
2022/08/03 00:11:13;;;;;;;0.85;0.65;;;;;;;21.20;43.06;93901.91;5074362;28;20177;-77
2022/08/03 00:13:38;;;;;;;0.57;0.57;;;;;;;21.16;43.22;93890.28;5075537;28;20035;-79
2022/08/03 00:16:04;;;;;;;0.55;0.43;;;;;;;21.19;43.08;93908.47;5073571;28;20119;-77
2022/08/03 00:18:30;;;;;;;0.43;0.43;;;;;;;21.32;43.17;93925.91;5074198;28;20074;-77
2022/08/03 00:20:55;;;;;;;0.82;0.57;;;;;;;21.28;43.13;93921.63;5075309;28;20045;-78
2022/08/03 00:23:21;;;;;;;1.20;0.50;;;;;;;21.10;43.18;93894.50;5075425;28;20379;-79
2022/08/03 00:25:46;;;;;;;0.90;0.90;;;;;;;21.09;43.63;93917.28;5076876;28;20025;-79
2022/08/03 00:28:11;;;;;;;0.52;0.52;;;;;;;20.77;43.50;93894.63;5074077;28;20039;-78
2022/08/03 00:30:37;;;;;;;0.50;0.50;;;;;;;20.88;43.72;93898.19;5075561;28;20035;-80
2022/08/03 00:33:02;;;;;;;0.70;0.70;;;;;;;21.11;43.65;93925.81;5076997;28;20035;-78
2022/08/03 00:35:28;;;;;;;0.55;0.55;;;;;;;21.18;43.92;93927.75;5071904;28;20020;-79
2022/08/03 00:37:54;;;;;;;0.55;0.52;;;;;;;21.12;43.34;93929.28;5076271;28;20020;-77
2022/08/03 00:40:20;;;;;;;0.60;0.60;;;;;;;20.98;43.64;93911.00;5072485;28;20028;-79
2022/08/03 00:42:49;;;;;;;0.82;0.60;;;;;;;20.94;44.10;93902.09;5074875;28;20024;-77
2022/08/03 00:45:17;;;;;;;0.85;0.70;;;;;;;20.95;43.91;93911.78;5072793;28;20521;-78
2022/08/03 00:47:44;;;;;;;1.38;0.80;;;;;;;20.98;44.10;93913.72;5073331;28;20035;-78
2022/08/03 00:50:09;;;;;;;0.85;0.60;;;;;;;20.95;44.14;93917.19;5074070;28;20039;-78
2022/08/03 00:52:35;;;;;;;1.35;0.90;;;;;;;20.87;44.26;93910.97;5074129;28;20032;-77
2022/08/03 00:55:01;;;;;;;1.20;0.93;;;;;;;20.91;44.27;93916.38;5072118;28;20028;-78
2022/08/03 00:57:29;;;;;;;0.70;0.68;;;;;;;20.80;44.31;93908.16;5074423;28;20028;-78
2022/08/03 00:59:55;;;;;;;1.00;0.82;;;;;;;20.88;44.42;93907.09;5075286;28;20062;-79
2022/08/03 01:02:20;;;;;;;2.28;0.68;;;;;;;20.83;44.30;93901.22;5074067;28;20044;-78
2022/08/03 01:04:45;;;;;;;0.90;0.60;;;;;;;20.89;44.58;93918.69;5075231;28;20077;-78
2022/08/03 01:07:14;;;;;;;1.23;1.13;;;;;;;20.84;44.79;93910.88;5073813;28;20068;-77
2022/08/03 01:10:05;;;;;;;0.90;0.63;;;;;;;20.86;44.74;93912.09;5071659;28;20129;-79
2022/08/03 01:12:59;;;;;;;1.17;0.80;;;;;;;20.84;45.00;93902.78;5071325;28;20028;-78
2022/08/03 01:15:31;;;;;;;1.10;1.00;;;;;;;20.77;44.63;93889.22;5071724;28;20291;-79
2022/08/03 01:18:09;;;;;;;1.10;0.80;;;;;;;20.78;45.22;93891.53;5073519;28;20536;-78
2022/08/03 01:20:39;;;;;;;3.28;0.80;;;;;;;20.76;44.96;93893.06;5081839;28;20406;-78
2022/08/03 01:23:19;;;;;;;1.38;0.98;;;;;;;20.81;45.19;93904.31;5075323;28;20028;-77
2022/08/03 01:26:20;;;;;;;1.40;0.98;;;;;;;20.73;45.31;93904.66;5072402;28;20422;-78
2022/08/03 01:28:52;;;;;;;1.33;0.80;;;;;;;20.65;45.53;93900.31;5072509;28;20081;-78
2022/08/03 01:31:22;;;;;;;3.75;1.00;;;;;;;20.64;45.47;93896.06;5076046;28;20032;-79
2022/08/03 01:33:56;;;;;;;2.53;1.00;;;;;;;20.68;45.51;93907.69;5072927;28;20029;-77
2022/08/03 01:36:25;;;;;;;1.15;0.95;;;;;;;20.58;45.42;93892.97;5072374;28;20077;-79
2022/08/03 01:38:54;;;;;;;1.35;1.02;;;;;;;20.57;45.49;93889.47;5072609;28;20505;-78
2022/08/03 01:41:25;;;;;;;0.95;0.90;;;;;;;20.58;45.96;93907.22;5070299;28;20106;-78
2022/08/03 01:43:52;;;;;;;1.55;1.05;;;;;;;20.53;45.92;93907.56;5072025;28;20028;-79
2022/08/03 01:46:20;;;;;;;4.10;0.90;;;;;;;20.39;46.17;93902.03;5071301;28;20085;-79
2022/08/03 01:48:48;;;;;;;2.45;1.52;;;;;;;20.43;46.14;93907.50;5074968;28;20027;-79
2022/08/03 01:51:17;;;;;;;1.90;1.25;;;;;;;20.36;46.47;93886.59;5072455;28;20433;-77
2022/08/03 01:53:43;;;;;;;1.70;1.02;;;;;;;20.30;46.27;93882.66;5070526;28;20504;-77
2022/08/03 01:56:10;;;;;;;3.30;1.13;;;;;;;20.44;46.08;93906.31;5070635;28;20513;-77
2022/08/03 01:58:37;;;;;;;3.35;1.00;;;;;;;20.39;46.22;93902.03;5074334;28;20020;-78
2022/08/03 02:01:05;;;;;;;1.13;0.98;;;;;;;20.24;46.12;93894.94;5072905;28;20064;-77
2022/08/03 02:03:35;;;;;;;1.83;1.10;;;;;;;20.33;46.42;93908.94;5081399;28;20039;-79
2022/08/03 02:06:01;;;;;;;1.45;1.00;;;;;;;20.25;46.41;93896.50;5075835;28;20028;-77
2022/08/03 02:08:29;;;;;;;2.03;1.40;;;;;;;20.28;46.48;93908.50;5073448;28;20097;-79
2022/08/03 02:10:58;;;;;;;1.00;0.90;;;;;;;20.12;46.47;93892.50;5073558;28;20036;-79
2022/08/03 02:13:26;;;;;;;4.85;1.05;;;;;;;20.30;46.74;93904.28;5072318;28;20050;-78
2022/08/03 02:15:53;;;;;;;2.20;1.17;;;;;;;20.31;46.59;93908.53;5078727;28;20107;-78
2022/08/03 02:18:20;;;;;;;2.05;1.02;;;;;;;20.33;46.45;93910.88;5070980;28;20028;-78
2022/08/03 02:20:46;;;;;;;1.48;1.20;;;;;;;20.34;46.50;93910.47;5073985;28;20106;-79
2022/08/03 02:23:15;;;;;;;1.65;1.20;;;;;;;20.26;46.20;93898.06;5073456;28;20132;-78
2022/08/03 02:25:55;;;;;;;1.10;1.00;;;;;;;20.31;46.37;93903.13;5074282;28;20444;-76
2022/08/03 02:28:25;;;;;;;2.50;1.60;;;;;;;20.32;46.42;93899.28;5075590;28;20825;-79
2022/08/03 02:30:53;;;;;;;1.58;0.98;;;;;;;20.25;46.78;93898.44;5078781;28;20040;-78
2022/08/03 02:33:25;;;;;;;1.92;1.13;;;;;;;20.11;46.84;93891.72;5078647;28;20306;-78
2022/08/03 02:35:52;;;;;;;1.95;1.00;;;;;;;20.06;46.98;93885.88;5076204;28;20038;-77
2022/08/03 02:38:22;;;;;;;1.67;1.02;;;;;;;20.14;46.94;93907.16;5075015;28;20025;-79
2022/08/03 02:40:49;;;;;;;1.52;1.00;;;;;;;20.10;47.20;93905.59;5076136;28;20024;-79
2022/08/03 02:43:20;;;;;;;3.17;1.20;;;;;;;20.10;47.24;93905.59;5074130;28;20027;-78
2022/08/03 02:45:48;;;;;;;2.05;1.05;;;;;;;20.02;47.33;93887.78;5075851;28;20098;-78
2022/08/03 02:48:22;;;;;;;1.42;0.90;;;;;;;19.99;47.19;93873.09;5076066;28;20557;-76
2022/08/03 02:50:50;;;;;;;3.17;1.10;;;;;;;20.07;47.36;93896.31;5076533;28;20126;-76
2022/08/03 02:53:17;;;;;;;2.20;0.90;;;;;;;20.02;47.41;93893.19;5076115;28;20059;-77
2022/08/03 02:55:45;;;;;;;1.00;0.95;;;;;;;19.83;47.46;93880.66;5078791;28;20591;-78
2022/08/03 02:58:13;;;;;;;1.23;1.10;;;;;;;19.92;47.44;93908.13;5075848;28;20052;-77
2022/08/03 03:00:39;;;;;;;2.15;1.30;;;;;;;19.89;47.53;93906.16;5084026;28;20028;-79
2022/08/03 03:03:05;;;;;;;1.27;1.15;;;;;;;19.85;47.60;93904.56;5078118;28;20162;-77
2022/08/03 03:05:31;;;;;;;1.52;1.42;;;;;;;19.70;47.82;93890.16;5076415;28;20491;-80
2022/08/03 03:07:57;;;;;;;1.00;0.90;;;;;;;19.70;47.78;93893.59;5074776;28;20190;-79
2022/08/03 03:10:24;;;;;;;2.08;1.10;;;;;;;19.63;47.75;93896.22;5073234;28;20491;-79
2022/08/03 03:12:54;;;;;;;2.13;0.98;;;;;;;19.72;48.17;93918.31;5077060;28;20436;-78
2022/08/03 03:15:19;;;;;;;1.55;1.45;;;;;;;19.68;47.99;93924.81;5075088;28;20036;-78
2022/08/03 03:17:47;;;;;;;1.35;1.10;;;;;;;19.68;48.06;93928.28;5077674;28;20028;-78
2022/08/03 03:20:14;;;;;;;1.83;1.02;;;;;;;19.66;48.08;93935.16;5075305;28;20048;-79
2022/08/03 03:22:40;;;;;;;1.15;1.05;;;;;;;19.55;47.98;93929.66;5075261;28;20214;-77
2022/08/03 03:25:06;;;;;;;0.90;0.90;;;;;;;19.50;48.38;93927.28;5074869;28;20089;-79
2022/08/03 03:27:32;;;;;;;2.30;1.27;;;;;;;19.46;48.41;93921.06;5075916;28;20389;-78
2022/08/03 03:30:00;;;;;;;1.45;1.25;;;;;;;19.50;48.53;93937.31;5083487;28;20139;-79
2022/08/03 03:32:27;;;;;;;2.15;1.30;;;;;;;19.48;48.49;93934.19;5077429;28;20081;-78
2022/08/03 03:34:54;;;;;;;2.28;1.23;;;;;;;19.43;48.80;93927.16;5079577;28;20024;-78
2022/08/03 03:37:20;;;;;;;2.22;1.50;;;;;;;19.14;48.61;93877.47;5076583;28;20077;-78
2022/08/03 03:39:45;;;;;;;2.05;1.25;;;;;;;19.52;48.84;93945.78;5077504;28;20029;-79
2022/08/03 03:42:11;;;;;;;2.22;1.27;;;;;;;19.56;48.75;93941.22;5076744;28;20367;-78
2022/08/03 03:44:37;;;;;;;1.40;1.30;;;;;;;19.52;48.69;93935.78;5076242;28;20036;-79
2022/08/03 03:47:03;;;;;;;1.85;1.52;;;;;;;19.56;48.70;93928.50;5075735;28;20047;-75
2022/08/03 03:49:29;;;;;;;2.00;1.42;;;;;;;19.42;48.61;93909.41;5074675;28;20109;-78
2022/08/03 03:51:55;;;;;;;1.27;1.17;;;;;;;19.65;48.75;93939.78;5075651;28;20028;-78
2022/08/03 03:54:20;;;;;;;2.33;2.13;;;;;;;19.68;48.97;93952.56;5074411;28;20077;-77
2022/08/03 03:56:46;;;;;;;1.80;1.10;;;;;;;19.70;49.06;93947.56;5077320;28;20637;-78
2022/08/03 03:59:12;;;;;;;1.73;1.25;;;;;;;19.75;48.98;93949.94;5076712;28;20036;-77
2022/08/03 04:01:38;;;;;;;2.35;1.30;;;;;;;19.70;49.10;93936.00;5075440;28;20032;-78
2022/08/03 04:12:24;;;;;;;2.70;1.58;;;;;;;19.80;49.75;93923.78;5075554;28;20112;-78
2022/08/03 04:14:53;;;;;;;3.13;1.30;;;;;;;19.82;49.24;93919.56;5075420;28;20023;-78
2022/08/03 04:17:21;;;;;;;2.53;1.40;;;;;;;19.91;49.78;93930.84;5073228;28;20585;-77
2022/08/03 04:19:51;;;;;;;2.28;1.10;;;;;;;19.90;49.61;93928.50;5074799;28;20113;-79
2022/08/03 04:22:21;;;;;;;3.92;1.40;;;;;;;19.79;48.76;93895.25;5074803;28;20115;-78
2022/08/03 04:24:54;;;;;;;1.80;1.63;;;;;;;20.21;49.40;93947.00;5074825;28;20016;-78
2022/08/03 04:27:24;;;;;;;4.47;1.35;;;;;;;20.13;48.96;93921.06;5074029;28;20149;-79
2022/08/03 04:29:53;;;;;;;4.00;1.30;;;;;;;20.33;48.05;93944.06;5074272;28;20025;-78
2022/08/03 04:32:19;;;;;;;1.60;1.25;;;;;;;20.37;48.08;93942.16;5074610;28;20038;-79
2022/08/03 04:34:46;;;;;;;1.58;1.42;;;;;;;20.32;48.22;93934.41;5073589;28;20764;-76
2022/08/03 04:37:15;;;;;;;3.58;2.03;;;;;;;20.39;47.42;93933.66;5073374;28;20162;-77
2022/08/03 04:39:43;;;;;;;2.60;1.90;;;;;;;20.27;47.42;93921.22;5074219;28;20055;-79
2022/08/03 04:42:12;;;;;;;3.28;2.33;;;;;;;20.41;47.35;93939.50;5073821;28;20027;-78
2022/08/03 04:44:41;;;;;;;3.92;1.90;;;;;;;20.57;47.47;93950.84;5074576;28;20033;-79
2022/08/03 04:47:07;;;;;;;5.63;1.80;;;;;;;20.57;47.27;93957.03;5074983;28;20482;-78
2022/08/03 04:49:36;;;;;;;1.92;1.67;;;;;;;20.63;47.70;93937.78;5073588;28;20028;-78
2022/08/03 04:52:02;;;;;;;3.28;2.00;;;;;;;20.86;47.89;93951.84;5074572;28;20028;-78
2022/08/03 04:54:27;;;;;;;3.72;2.00;;;;;;;20.87;47.30;93923.69;5075776;28;20024;-78
2022/08/03 04:56:53;;;;;;;2.58;1.88;;;;;;;21.14;47.69;93946.66;5076336;28;20077;-78
2022/08/03 04:59:19;;;;;;;4.38;2.00;;;;;;;21.30;46.89;93957.22;5071199;28;20692;-78
2022/08/03 05:01:45;;;;;;;3.85;1.95;;;;;;;21.10;45.91;93966.72;5073220;28;20032;-77
2022/08/03 05:04:10;;;;;;;8.25;2.10;;;;;;;21.05;45.81;93967.84;5073966;28;20103;-79
2022/08/03 05:06:35;;;;;;;2.65;2.15;;;;;;;21.05;46.12;93967.06;5081684;28;20021;-78
2022/08/03 05:09:01;;;;;;;2.95;2.03;;;;;;;21.19;46.43;93981.47;5073054;28;20032;-77
2022/08/03 05:11:27;;;;;;;4.78;2.28;;;;;;;21.26;46.02;93981.53;5074570;28;20024;-77
2022/08/03 05:13:53;;;;;;;3.22;2.10;;;;;;;21.10;46.08;93962.09;5073896;28;20040;-80
2022/08/03 05:16:18;;;;;;;5.97;2.28;;;;;;;21.23;45.92;93982.28;5073329;28;20429;-77
2022/08/03 05:18:44;;;;;;;4.43;2.88;;;;;;;21.16;45.93;93973.34;5074402;28;20165;-78
2022/08/03 05:21:12;;;;;;;2.40;1.98;;;;;;;21.04;46.40;93982.53;5074608;28;20033;-77
2022/08/03 05:23:38;;;;;;;3.85;2.22;;;;;;;21.08;46.16;93969.03;5074530;28;20016;-77
2022/08/03 05:26:03;;;;;;;4.15;2.30;;;;;;;21.13;45.97;93977.56;5072205;28;20088;-77
2022/08/03 05:28:29;;;;;;;2.85;2.03;;;;;;;21.20;45.66;93999.25;5074107;28;20016;-78
2022/08/03 05:30:54;;;;;;;2.28;1.75;;;;;;;21.15;45.89;93974.50;5075019;28;20059;-78
2022/08/03 05:33:19;;;;;;;2.97;2.33;;;;;;;20.80;45.99;93931.72;5070596;28;20636;-77
2022/08/03 05:35:45;;;;;;;4.20;2.72;;;;;;;21.25;46.38;93962.97;5071587;28;20024;-77
2022/08/03 05:38:10;;;;;;;4.03;2.75;;;;;;;21.62;46.20;93981.75;5074317;28;20669;-78
2022/08/03 05:40:36;;;;;;;4.40;3.38;;;;;;;21.85;45.45;93993.88;5081590;28;20046;-77
2022/08/03 05:43:01;;;;;;;3.75;2.80;;;;;;;21.94;45.82;94004.38;5073389;28;20028;-80
2022/08/03 05:45:27;;;;;;;4.68;2.70;;;;;;;21.91;45.92;93991.56;5072854;28;20016;-78
2022/08/03 05:47:52;;;;;;;3.10;2.80;;;;;;;21.90;46.08;93983.84;5073792;28;20028;-77
2022/08/03 05:50:18;;;;;;;4.57;2.95;;;;;;;21.78;45.92;93949.75;5073568;28;20303;-77
2022/08/03 05:52:44;;;;;;;5.60;3.25;;;;;;;22.24;44.93;94010.31;5074045;28;20049;-78
2022/08/03 05:55:11;;;;;;;5.75;3.00;;;;;;;22.33;44.06;94009.19;5072167;28;20025;-77
2022/08/03 05:57:37;;;;;;;5.57;2.78;;;;;;;22.39;44.36;94002.25;5072899;28;20040;-77
2022/08/03 06:00:08;;;;;;;3.70;2.60;;;;;;;22.13;43.87;93993.22;5073871;28;20040;-78
2022/08/03 06:02:33;;;;;;;4.30;3.15;;;;;;;22.04;44.08;94008.28;5071971;28;20038;-79
2022/08/03 06:04:59;;;;;;;6.68;3.42;;;;;;;22.19;44.60;94010.63;5072664;28;20020;-78
2022/08/03 06:07:25;;;;;;;5.63;3.30;;;;;;;21.96;44.56;93987.72;5071996;28;20016;-78
2022/08/03 06:09:50;;;;;;;3.30;2.70;;;;;;;22.23;44.53;94011.47;5072683;28;20043;-79
2022/08/03 06:12:16;;;;;;;5.95;3.47;;;;;;;22.32;44.72;93991.38;5072267;28;20020;-78
2022/08/03 06:14:41;;;;;;;3.30;2.50;;;;;;;22.54;44.53;94003.81;5074949;28;20023;-77
2022/08/03 06:17:07;;;;;;;4.68;2.63;;;;;;;22.38;43.76;93982.50;5071679;28;20028;-78
2022/08/03 06:19:32;;;;;;;5.65;2.95;;;;;;;22.53;44.11;93996.84;5071573;28;20062;-79
2022/08/03 06:21:59;;;;;;;5.00;2.58;;;;;;;22.80;43.98;94019.72;5081462;28;20028;-78
2022/08/03 06:24:25;;;;;;;4.90;2.25;;;;;;;22.81;43.53;93994.19;5071524;28;20020;-79
2022/08/03 06:26:50;;;;;;;6.88;3.53;;;;;;;23.01;43.82;94011.66;5072359;28;20020;-77
2022/08/03 06:29:16;;;;;;;2.83;2.42;;;;;;;23.11;43.64;94013.59;5071079;28;20915;-79
2022/08/03 06:31:41;;;;;;;4.18;2.78;;;;;;;23.20;43.05;94009.72;5072961;28;20029;-78
2022/08/03 06:34:07;;;;;;;3.03;2.45;;;;;;;23.15;42.38;94022.50;5072171;28;20902;-77
2022/08/03 06:36:32;;;;;;;4.97;2.30;;;;;;;22.95;42.47;94013.19;5071823;28;20024;-78
2022/08/03 06:38:59;;;;;;;2.17;1.90;;;;;;;23.05;43.08;94007.00;5073024;28;20051;-77
2022/08/03 06:41:25;;;;;;;3.22;1.95;;;;;;;22.92;42.84;93999.66;5072832;28;20501;-78
2022/08/03 06:43:51;;;;;;;3.40;2.35;;;;;;;22.93;42.17;94017.44;5069509;28;20086;-77
2022/08/03 06:46:16;;;;;;;3.70;2.38;;;;;;;22.99;43.19;94008.53;5072576;28;20474;-77
2022/08/03 06:48:42;;;;;;;4.15;2.80;;;;;;;23.12;42.75;94001.56;5074096;28;20061;-77
2022/08/03 06:51:07;;;;;;;4.53;2.80;;;;;;;22.69;43.23;94013.50;5073868;28;20394;-77
2022/08/03 06:53:33;;;;;;;5.07;2.85;;;;;;;22.74;42.94;94000.34;5070098;28;20054;-78
2022/08/03 06:55:59;;;;;;;6.47;2.60;;;;;;;22.94;42.77;94000.78;5072636;28;20020;-78
2022/08/03 06:58:24;;;;;;;4.63;2.50;;;;;;;23.03;42.88;93984.91;5071633;28;20685;-78
2022/08/03 07:00:50;;;;;;;3.92;2.70;;;;;;;23.00;43.01;93950.44;5073557;28;20036;-76
2022/08/03 07:03:16;;;;;;;7.85;3.08;;;;;;;22.66;42.94;93989.91;5071111;28;20031;-78
2022/08/03 07:05:42;;;;;;;4.68;3.17;;;;;;;22.55;43.43;93983.69;5071647;28;20012;-77
2022/08/03 07:08:08;;;;;;;3.70;2.90;;;;;;;22.93;43.44;93993.81;5071907;28;20486;-78
2022/08/03 07:10:33;;;;;;;5.70;3.45;;;;;;;22.89;42.06;94000.41;5071708;28;20033;-78
2022/08/03 07:13:00;;;;;;;4.57;3.78;;;;;;;22.72;42.68;93988.38;5072912;28;20668;-78
2022/08/03 07:15:25;;;;;;;4.22;2.70;;;;;;;22.78;42.14;93983.34;5073458;28;20036;-77
2022/08/03 07:17:50;;;;;;;9.63;2.80;;;;;;;22.86;42.44;93991.13;5077073;28;20421;-77
2022/08/03 07:20:17;;;;;;;2.90;2.47;;;;;;;22.91;42.13;94001.56;5076619;28;20753;-77
2022/08/03 07:22:43;;;;;;;4.32;2.30;;;;;;;23.03;41.39;93998.47;5076985;28;20119;-77
2022/08/03 07:25:09;;;;;;;3.63;2.30;;;;;;;22.85;42.54;94005.78;5081873;28;20079;-79
2022/08/03 07:27:35;;;;;;;2.53;2.30;;;;;;;23.06;41.27;94019.41;5077934;28;20020;-79
2022/08/03 07:30:01;;;;;;;3.47;2.30;;;;;;;22.88;40.54;93996.91;5075140;28;20035;-78
2022/08/03 07:32:27;;;;;;;2.33;1.70;;;;;;;23.10;41.38;94003.13;5075640;28;20174;-77
2022/08/03 07:34:53;;;;;;;3.38;2.40;;;;;;;23.00;40.51;93999.25;5075382;28;20147;-77
2022/08/03 07:37:18;;;;;;;2.78;1.98;;;;;;;23.28;40.72;94008.53;5074981;28;20088;-77
2022/08/03 07:39:43;;;;;;;3.40;2.42;;;;;;;22.98;40.15;94006.22;5075889;28;20067;-78
2022/08/03 07:42:09;;;;;;;2.80;2.22;;;;;;;23.17;40.96;93998.47;5076041;28;20024;-76
2022/08/03 07:44:34;;;;;;;3.15;1.92;;;;;;;23.48;40.34;94015.13;5077571;28;20478;-76
2022/08/03 07:47:00;;;;;;;4.90;1.92;;;;;;;23.41;40.37;94015.13;5075235;28;20400;-77
2022/08/03 07:49:25;;;;;;;2.80;2.13;;;;;;;23.43;40.36;93985.66;5076711;28;20055;-78
2022/08/03 07:54:35;;;;;;;2.80;2.17;;;;;;;23.06;39.97;93980.66;5076252;28;20890;-80
2022/08/03 07:57:00;;;;;;;2.00;1.60;;;;;;;23.52;40.65;94016.69;5075374;28;20036;-79
2022/08/03 07:59:26;;;;;;;4.00;2.05;;;;;;;23.72;39.83;94008.13;5075877;28;20039;-79
2022/08/03 08:01:52;;;;;;;1.85;1.67;;;;;;;23.94;39.23;94025.91;5076298;28;20486;-79
2022/08/03 08:04:18;;;;;;;2.47;2.28;;;;;;;23.89;39.16;94027.09;5074747;28;20370;-79
2022/08/03 08:06:43;;;;;;;3.78;1.80;;;;;;;23.71;38.26;94018.19;5073808;28;20035;-80
2022/08/03 08:09:10;;;;;;;3.42;1.83;;;;;;;23.40;38.93;93967.44;5074488;28;20029;-77
2022/08/03 08:11:36;;;;;;;2.65;1.88;;;;;;;23.66;38.64;94013.16;5074643;28;20486;-79
2022/08/03 08:14:02;;;;;;;2.17;1.92;;;;;;;23.85;39.07;94020.91;5075472;28;20035;-79
2022/08/03 08:16:28;;;;;;;3.72;1.83;;;;;;;23.75;38.39;94005.41;5076273;28;20798;-79
2022/08/03 08:18:53;;;;;;;2.15;1.95;;;;;;;23.83;38.06;94023.22;5076560;28;20054;-79
2022/08/03 08:21:19;;;;;;;3.60;1.70;;;;;;;23.55;37.98;94023.28;5076201;28;20031;-78
2022/08/03 08:23:44;;;;;;;2.05;1.60;;;;;;;23.27;38.04;94012.44;5075834;28;20024;-79
2022/08/03 08:26:10;;;;;;;8.20;1.60;;;;;;;23.39;38.59;94022.88;5074080;28;20046;-78
2022/08/03 08:28:35;;;;;;;1.42;1.33;;;;;;;23.34;39.26;94007.75;5073198;28;20035;-78
2022/08/03 08:31:01;;;;;;;2.70;1.60;;;;;;;23.63;38.60;94013.97;5073119;28;20074;-79
2022/08/03 08:33:27;;;;;;;3.72;1.77;;;;;;;23.86;38.82;94022.44;5074929;28;20387;-78
2022/08/03 08:35:52;;;;;;;2.28;1.55;;;;;;;24.00;38.68;94006.09;5073187;28;20055;-80
2022/08/03 08:38:18;;;;;;;1.98;1.67;;;;;;;24.25;38.04;94016.13;5074082;28;20031;-77
2022/08/03 08:40:43;;;;;;;2.28;1.88;;;;;;;24.25;38.02;93994.38;5075216;28;20027;-77
2022/08/03 08:43:08;;;;;;;2.17;1.60;;;;;;;24.35;38.18;94018.00;5072896;28;20028;-78
2022/08/03 08:45:34;;;;;;;3.28;1.65;;;;;;;24.09;38.09;94021.22;5073464;28;20034;-78
2022/08/03 08:48:01;;;;;;;3.25;1.48;;;;;;;24.13;37.56;94019.28;5073186;28;20035;-79
2022/08/03 08:50:28;;;;;;;2.20;1.50;;;;;;;24.07;36.93;93994.44;5073153;28;20575;-77
2022/08/03 08:52:54;;;;;;;3.75;1.98;;;;;;;24.08;38.16;94006.06;5074393;28;20020;-77
2022/08/03 08:55:22;;;;;;;2.67;1.52;;;;;;;24.34;36.96;94014.53;5072842;28;20119;-78
2022/08/03 08:58:04;;;;;;;2.20;2.00;;;;;;;24.51;37.51;94012.88;5073146;28;20529;-79
2022/08/03 09:00:30;;;;;;;2.47;1.65;;;;;;;24.43;36.87;93992.34;5073474;28;20032;-79
2022/08/03 09:02:55;;;;;;;2.15;1.58;;;;;;;24.54;37.38;94006.66;5074499;28;20028;-79
2022/08/03 09:05:21;;;;;;;1.98;1.67;;;;;;;24.38;37.78;93998.22;5072210;28;20097;-79
2022/08/03 09:07:47;;;;;;;1.77;1.30;;;;;;;24.28;36.99;94005.25;5073958;28;20017;-79
2022/08/03 09:10:18;;;;;;;1.92;1.60;;;;;;;24.03;36.83;93971.94;5074248;28;20028;-78
2022/08/03 09:12:45;;;;;;;1.63;1.52;;;;;;;24.15;36.52;94006.09;5076109;28;20032;-80
2022/08/03 09:15:23;;;;;;;3.05;1.67;;;;;;;24.26;36.61;94014.94;5072057;28;20028;-78
2022/08/03 09:17:50;;;;;;;2.80;1.67;;;;;;;24.23;36.52;94004.88;5073655;28;20035;-78
2022/08/03 09:20:16;;;;;;;1.92;1.80;;;;;;;24.37;37.43;94007.53;5074031;28;20044;-78
2022/08/03 09:22:52;;;;;;;3.15;1.98;;;;;;;24.61;37.37;94001.19;5073088;28;20036;-79
2022/08/03 09:25:17;;;;;;;8.52;1.85;;;;;;;24.75;37.01;94003.84;5071836;28;20028;-78
2022/08/03 09:27:44;;;;;;;1.40;1.30;;;;;;;24.43;36.66;93979.53;5075112;28;20027;-79
2022/08/03 09:30:15;;;;;;;1.88;1.50;;;;;;;24.44;37.17;94002.81;5073601;28;20037;-77
2022/08/03 09:32:43;;;;;;;2.30;1.40;;;;;;;24.67;36.26;93999.59;5074454;28;20543;-78
2022/08/03 09:35:10;;;;;;;1.75;1.60;;;;;;;24.77;35.23;93987.91;5071190;28;20077;-78
2022/08/03 09:37:35;;;;;;;2.42;1.30;;;;;;;24.66;35.25;94005.44;5072281;28;20029;-78
2022/08/03 09:40:01;;;;;;;1.50;1.40;;;;;;;24.73;36.62;93998.03;5072980;28;20057;-78
2022/08/03 09:42:27;;;;;;;2.03;1.25;;;;;;;24.82;36.34;93997.59;5072898;28;20406;-78
2022/08/03 09:44:53;;;;;;;4.38;1.40;;;;;;;25.08;36.67;94004.38;5073283;28;20375;-78
2022/08/03 09:47:37;;;;;;;2.85;1.75;;;;;;;25.20;34.45;94009.34;5071154;28;20062;-77
2022/08/03 09:50:07;;;;;;;2.75;1.55;;;;;;;25.15;34.66;94002.38;5081330;28;20066;-77
2022/08/03 09:52:38;;;;;;;1.33;1.23;;;;;;;25.27;34.71;94001.13;5082637;28;20035;-78
2022/08/03 09:55:11;;;;;;;2.88;1.75;;;;;;;25.44;34.02;93992.06;5075610;28;20143;-78
2022/08/03 09:57:39;;;;;;;2.47;1.55;;;;;;;25.41;34.58;93983.94;5074006;28;20036;-79
2022/08/03 10:00:11;;;;;;;1.67;1.52;;;;;;;25.40;34.17;93983.16;5072614;28;20385;-77
2022/08/03 10:02:37;;;;;;;1.50;1.40;;;;;;;25.35;34.47;93978.16;5072960;28;20127;-77
2022/08/03 10:05:04;;;;;;;4.53;1.80;;;;;;;25.32;35.14;93994.50;5072618;28;20035;-77
2022/08/03 10:07:29;;;;;;;2.90;1.70;;;;;;;25.06;34.64;93965.94;5070847;28;20103;-78
2022/08/03 10:10:00;;;;;;;1.90;1.70;;;;;;;25.07;33.83;93994.69;5072795;28;20035;-78
2022/08/03 10:12:27;;;;;;;2.60;1.90;;;;;;;25.16;35.39;93987.63;5070725;28;20020;-79
2022/08/03 10:14:53;;;;;;;2.33;1.80;;;;;;;24.94;35.28;93974.56;5074082;28;20085;-77
2022/08/03 10:17:22;;;;;;;2.25;1.98;;;;;;;24.76;36.23;93969.25;5074119;28;20029;-79
2022/08/03 10:19:48;;;;;;;2.45;1.50;;;;;;;24.87;34.83;93980.84;5072838;28;20557;-79
2022/08/03 10:22:23;;;;;;;2.60;2.40;;;;;;;24.96;35.59;93983.09;5069800;28;20042;-79
2022/08/03 10:24:54;;;;;;;1.83;1.58;;;;;;;25.08;34.56;93982.59;5072768;28;20510;-78
2022/08/03 10:27:22;;;;;;;4.05;1.63;;;;;;;24.86;34.38;93984.72;5072613;28;20036;-79
2022/08/03 10:30:02;;;;;;;2.85;2.17;;;;;;;24.81;35.24;93972.34;5072449;28;20027;-79
2022/08/03 10:32:33;;;;;;;2.47;1.67;;;;;;;24.71;35.23;93954.13;5087897;28;20028;-77
2022/08/03 10:35:20;;;;;;;1.60;1.50;;;;;;;24.96;35.69;93983.09;5073957;28;20097;-79
2022/08/03 10:37:59;;;;;;;2.70;1.67;;;;;;;24.98;35.63;93959.75;5072338;28;20036;-79
2022/08/03 10:40:28;;;;;;;2.05;1.85;;;;;;;25.18;33.62;93984.47;5069827;28;20028;-79
2022/08/03 10:42:57;;;;;;;1.48;1.35;;;;;;;25.05;34.63;93975.25;5073495;28;20048;-78
2022/08/03 10:45:25;;;;;;;2.22;1.40;;;;;;;25.15;35.47;93968.94;5072070;28;20065;-79
2022/08/03 10:47:54;;;;;;;1.60;1.50;;;;;;;25.26;36.47;93954.09;5071163;28;20048;-78
2022/08/03 10:50:22;;;;;;;1.90;1.70;;;;;;;25.42;34.60;93961.72;5073877;28;20375;-78
2022/08/03 10:53:01;;;;;;;2.13;1.92;;;;;;;25.33;34.64;93971.53;5076857;28;20076;-78
2022/08/03 10:58:36;;;;;;;1.80;1.65;;;;;;;25.45;35.16;93973.78;5077073;28;20410;-78
2022/08/03 11:01:06;;;;;;;1.75;1.58;;;;;;;25.15;34.43;93915.31;5075688;28;20148;-78
2022/08/03 11:03:32;;;;;;;1.95;1.77;;;;;;;25.26;34.85;93947.88;5075882;28;20114;-79
2022/08/03 11:06:18;;;;;;;3.40;1.30;;;;;;;25.14;35.34;93951.06;5078583;28;20020;-78
2022/08/03 11:08:45;;;;;;;1.60;1.50;;;;;;;25.36;34.61;93957.91;5074167;28;20503;-78
2022/08/03 11:11:16;;;;;;;1.45;1.30;;;;;;;25.35;36.00;93956.38;5074117;28;20067;-77
2022/08/03 11:14:06;;;;;;;3.28;1.85;;;;;;;25.15;35.75;93961.56;5077678;28;20485;-78
2022/08/03 11:16:35;;;;;;;2.25;1.90;;;;;;;25.23;36.09;93943.22;5073573;28;20042;-77
2022/08/03 11:19:04;;;;;;;4.70;1.70;;;;;;;25.52;35.00;93949.97;5076848;28;20980;-78
2022/08/03 11:21:50;;;;;;;1.80;1.60;;;;;;;25.62;35.05;93954.53;5077014;28;20036;-78
2022/08/03 11:24:46;;;;;;;2.47;1.63;;;;;;;25.78;36.13;93953.97;5075386;28;20028;-77
2022/08/03 11:27:17;;;;;;;2.13;1.60;;;;;;;25.75;33.98;93948.56;5077870;28;20028;-77
2022/08/03 11:30:02;;;;;;;2.70;2.17;;;;;;;25.59;33.33;93917.22;5075121;28;20032;-78
2022/08/03 11:32:38;;;;;;;1.60;1.50;;;;;;;25.68;33.21;93942.00;5074197;28;20051;-77
2022/08/03 11:35:17;;;;;;;1.70;1.58;;;;;;;25.90;33.75;93933.63;5073991;28;20059;-77
2022/08/03 11:37:54;;;;;;;6.50;2.40;;;;;;;26.07;32.47;93935.34;5073903;28;20060;-78
2022/08/03 11:40:35;;;;;;;2.88;2.42;;;;;;;26.18;31.74;93925.09;5073169;28;20085;-77
2022/08/03 11:43:02;;;;;;;3.03;2.50;;;;;;;26.16;37.29;93922.00;5074219;28;20040;-78
2022/08/03 11:45:28;;;;;;;2.03;1.83;;;;;;;26.20;33.76;93895.47;5073541;28;20035;-77
2022/08/03 11:47:54;;;;;;;2.35;1.73;;;;;;;26.45;31.68;93911.47;5074929;28;20382;-78
2022/08/03 11:50:21;;;;;;;1.83;1.35;;;;;;;26.42;31.70;93936.84;5074657;28;20024;-77
2022/08/03 11:52:47;;;;;;;2.45;1.25;;;;;;;26.44;32.04;93929.03;5074119;28;20442;-77